createdAt,value
2016-10-11T00:00:23.501Z,85.44
2016-10-11T00:01:23.551Z,85.34
2016-10-11T00:02:23.582Z,85.34
2016-10-11T00:03:23.605Z,85.53
2016-10-11T00:04:23.717Z,85.97
2016-10-11T00:05:23.772Z,86.45
2016-10-11T00:06:23.808Z,86.35
2016-10-11T00:07:23.849Z,86.83
2016-10-11T00:08:23.910Z,86.83
2016-10-11T00:09:23.964Z,86.54
2016-10-11T00:10:24.016Z,86.35
2016-10-11T00:11:24.067Z,86.45
2016-10-11T00:12:24.065Z,86.45
2016-10-11T00:13:24.116Z,87.02
2016-10-11T00:14:24.231Z,87.5
2016-10-11T00:15:24.230Z,88.13
2016-10-11T00:16:24.867Z,87.7
2016-10-11T00:17:24.358Z,87.6
2016-10-11T00:18:24.390Z,87.7
2016-10-11T00:19:24.492Z,87.6
2016-10-11T00:20:24.509Z,87.31
2016-10-11T00:21:24.531Z,86.93
2016-10-11T00:22:24.581Z,87.12
2016-10-11T00:23:24.660Z,87.88
2016-10-11T00:24:24.696Z,87.88
2016-10-11T00:25:24.765Z,87.5
2016-10-11T00:26:24.806Z,87.98
2016-10-11T00:27:24.880Z,87.02
2016-10-11T00:28:24.918Z,87.31
2016-10-11T00:29:24.988Z,87.02
2016-10-11T00:30:24.974Z,87.12
2016-10-11T00:31:25.081Z,87.5
2016-10-11T00:32:25.092Z,87.6
2016-10-11T00:33:25.152Z,88.17
2016-10-11T00:34:25.210Z,87.98
2016-10-11T00:35:25.282Z,87.88
2016-10-11T00:36:25.339Z,88.27
2016-10-11T00:37:25.318Z,88.56
2016-10-11T00:38:25.402Z,88.61
2016-10-11T00:39:25.486Z,88.8
2016-10-11T00:40:25.525Z,88.8
2016-10-11T00:41:25.586Z,88.42
2016-10-11T00:42:25.607Z,88.23
2016-10-11T00:43:26.183Z,88.08
2016-10-11T00:44:25.795Z,87.7
2016-10-11T00:45:25.763Z,87.7
2016-10-11T00:46:25.877Z,87.12
2016-10-11T00:47:26.403Z,87.6
2016-10-11T00:48:25.887Z,88.99
2016-10-11T00:49:26.000Z,88.99
2016-10-11T00:50:25.992Z,89.37
2016-10-11T00:51:26.076Z,89.09
2016-10-11T00:52:26.138Z,88.99
2016-10-11T00:53:26.207Z,88.8
2016-10-11T00:54:26.206Z,88.9
2016-10-11T00:55:26.281Z,89.28
2016-10-11T00:56:26.351Z,88.99
2016-10-11T00:57:29.433Z,88.23
2016-10-11T00:58:26.463Z,88.61
2016-10-11T00:59:26.485Z,88.9
2016-10-11T01:00:26.509Z,88.9
2016-10-11T01:01:26.611Z,89.18
2016-10-11T01:02:26.669Z,89.57
2016-10-11T01:03:26.717Z,89.95
2016-10-11T01:04:26.725Z,89.95
2016-10-11T01:05:26.752Z,89.28
2016-10-11T01:06:26.849Z,88.99
2016-10-11T01:07:27.397Z,89.28
2016-10-11T01:08:26.888Z,88.9
2016-10-11T01:09:26.976Z,88.42
2016-10-11T01:10:26.999Z,89.28
2016-10-11T01:11:27.120Z,88.9
2016-10-11T01:12:27.132Z,89.28
2016-10-11T01:13:27.176Z,89.13
2016-10-11T01:14:27.263Z,89.13
2016-10-11T01:15:27.275Z,89.04
2016-10-11T01:16:27.345Z,88.84
2016-10-11T01:17:27.385Z,88.37
2016-10-11T01:18:27.469Z,88.37
2016-10-11T01:19:27.489Z,88.75
2016-10-11T01:20:27.575Z,89.13
2016-10-11T01:21:27.584Z,89.09
2016-10-11T01:22:27.625Z,89.28
2016-10-11T01:23:27.682Z,89.37
2016-10-11T01:24:27.739Z,89.18
2016-10-11T01:25:27.782Z,89.76
2016-10-11T01:26:27.801Z,89.86
2016-10-11T01:27:27.867Z,89.86
2016-10-11T01:28:27.946Z,90.05
2016-10-11T01:29:28.007Z,91.19
2016-10-11T01:30:28.078Z,90.33
2016-10-11T01:31:28.090Z,90.62
2016-10-11T01:32:28.128Z,91
2016-10-11T01:33:28.222Z,90.91
2016-10-11T01:34:28.287Z,90.62
2016-10-11T01:35:28.738Z,89.95
2016-10-11T01:36:28.369Z,90.33
2016-10-11T01:37:28.450Z,89.86
2016-10-11T01:38:28.429Z,89.76
2016-10-11T01:39:28.536Z,89.95
2016-10-11T01:40:28.553Z,89.47
2016-10-11T01:41:28.626Z,89.18
2016-10-11T01:42:28.663Z,89.47
2016-10-11T01:43:28.721Z,89.95
2016-10-11T01:44:28.728Z,89.95
2016-10-11T01:45:28.816Z,89.95
2016-10-11T01:46:29.474Z,89.95
2016-10-11T01:47:28.914Z,89.86
2016-10-11T01:48:28.917Z,89.86
2016-10-11T01:49:28.991Z,89.76
2016-10-11T01:50:29.043Z,89.42
2016-10-11T01:51:29.167Z,89.28
2016-10-11T01:52:29.150Z,89.47
2016-10-11T01:53:29.167Z,89.47
2016-10-11T01:54:29.302Z,89.76
2016-10-11T01:55:29.321Z,89.66
2016-10-11T01:56:29.337Z,90.05
2016-10-11T01:57:29.403Z,89.57
2016-10-11T01:58:29.437Z,89.95
2016-10-11T01:59:29.541Z,89.95
2016-10-11T02:00:29.540Z,90.23
2016-10-11T02:01:29.584Z,90.14
2016-10-11T02:02:30.191Z,89.76
2016-10-11T02:03:29.689Z,89.86
2016-10-11T02:04:29.759Z,89.86
2016-10-11T02:05:29.809Z,90.23
2016-10-11T02:06:29.884Z,90.53
2016-10-11T02:07:29.974Z,90.33
2016-10-11T02:08:30.001Z,90.14
2016-10-11T02:09:30.654Z,89.95
2016-10-11T02:10:30.097Z,90.05
2016-10-11T02:11:30.106Z,89.57
2016-10-11T02:12:30.138Z,89.57
2016-10-11T02:13:30.245Z,89.09
2016-10-11T02:14:30.260Z,89.66
2016-10-11T02:15:30.384Z,89.09
2016-10-11T02:16:30.355Z,89.28
2016-10-11T02:17:30.416Z,89.23
2016-10-11T02:18:30.431Z,88.94
2016-10-11T02:19:30.502Z,88.75
2016-10-11T02:20:30.554Z,89.04
2016-10-11T02:21:30.591Z,88.94
2016-10-11T02:22:30.625Z,88.94
2016-10-11T02:23:30.712Z,88.94
2016-10-11T02:24:30.758Z,89.47
2016-10-11T02:25:30.823Z,89.57
2016-10-11T02:26:30.896Z,89.37
2016-10-11T02:27:30.925Z,89.86
2016-10-11T02:28:30.975Z,89.42
2016-10-11T02:29:31.022Z,89.13
2016-10-11T02:30:31.053Z,88.84
2016-10-11T02:31:31.099Z,88.37
2016-10-11T02:32:31.133Z,88.75
2016-10-11T02:33:31.194Z,88.84
2016-10-11T02:34:31.308Z,89.28
2016-10-11T02:35:31.348Z,88.94
2016-10-11T02:36:31.367Z,88.13
2016-10-11T02:37:31.406Z,88.56
2016-10-11T02:38:31.467Z,88.61
2016-10-11T02:39:31.514Z,89.09
2016-10-11T02:40:31.590Z,88.99
2016-10-11T02:41:31.612Z,88.9
2016-10-11T02:42:31.694Z,88.27
2016-10-11T02:43:31.724Z,88.46
2016-10-11T02:44:31.792Z,87.98
2016-10-11T02:45:31.876Z,88.08
2016-10-11T02:46:31.907Z,87.79
2016-10-11T02:47:31.910Z,87.7
2016-10-11T02:48:32.049Z,87.5
2016-10-11T02:49:32.022Z,87.5
2016-10-11T02:50:32.071Z,87.12
2016-10-11T02:51:32.169Z,87.5
2016-10-11T02:52:32.153Z,87.7
2016-10-11T02:53:32.233Z,87.12
2016-10-11T02:54:32.255Z,87.88
2016-10-11T02:55:32.402Z,87.79
2016-10-11T02:56:32.443Z,87.98
2016-10-11T02:57:32.488Z,88.37
2016-10-11T02:58:32.537Z,88.17
2016-10-11T02:59:32.573Z,88.17
2016-10-11T03:00:33.093Z,87.79
2016-10-11T03:01:32.632Z,87.6
2016-10-11T03:02:32.721Z,87.6
2016-10-11T03:03:32.749Z,87.31
2016-10-11T03:04:32.778Z,86.83
2016-10-11T03:05:32.878Z,86.45
2016-10-11T03:06:32.884Z,86.93
2016-10-11T03:07:32.947Z,86.35
2016-10-11T03:08:33.044Z,86.25
2016-10-11T03:09:33.071Z,86.45
2016-10-11T03:10:33.103Z,86.35
2016-10-11T03:11:33.121Z,86.45
2016-10-11T03:12:33.189Z,86.45
2016-10-11T03:13:33.295Z,86.16
2016-10-11T03:14:33.293Z,86.45
2016-10-11T03:15:33.365Z,86.35
2016-10-11T03:16:33.428Z,86.25
2016-10-11T03:17:33.508Z,85.88
2016-10-11T03:18:33.489Z,85.78
2016-10-11T03:19:33.598Z,86.07
2016-10-11T03:20:33.662Z,85.92
2016-10-11T03:21:34.193Z,85.49
2016-10-11T03:22:33.694Z,85.39
2016-10-11T03:23:33.777Z,85.39
2016-10-11T03:24:33.795Z,85.49
2016-10-11T03:25:33.859Z,85.68
2016-10-11T03:26:33.875Z,85.49
2016-10-11T03:27:33.954Z,85.21
2016-10-11T03:28:34.073Z,84.91
2016-10-11T03:29:34.081Z,85.01
2016-10-11T03:30:34.119Z,85.3
2016-10-11T03:31:34.206Z,85.01
2016-10-11T03:32:34.260Z,85.15
2016-10-11T03:33:34.292Z,85.15
2016-10-11T03:34:34.312Z,84.72
2016-10-11T03:35:34.353Z,85.05
2016-10-11T03:36:34.525Z,85.25
2016-10-11T03:37:34.451Z,85.25
2016-10-11T03:38:34.543Z,85.01
2016-10-11T03:39:34.598Z,85.05
2016-10-11T03:40:34.698Z,85.34
2016-10-11T03:41:34.673Z,84
2016-10-11T03:42:34.773Z,83.95
2016-10-11T03:43:34.823Z,84.05
2016-10-11T03:44:34.788Z,83.04
2016-10-11T03:45:35.459Z,83.29
2016-10-11T03:46:35.492Z,83.09
2016-10-11T03:47:35.034Z,83.81
2016-10-11T03:48:35.031Z,83.23
2016-10-11T03:49:35.669Z,83.33
2016-10-11T03:50:35.189Z,82.65
2016-10-11T03:51:35.249Z,83.33
2016-10-11T03:52:35.218Z,83.42
2016-10-11T03:53:35.328Z,83.48
2016-10-11T03:54:35.393Z,83.19
2016-10-11T03:55:35.398Z,83.09
2016-10-11T03:56:35.485Z,83.14
2016-10-11T03:57:35.472Z,83.42
2016-10-11T03:58:35.535Z,83.29
2016-10-11T03:59:35.615Z,83.38
2016-10-11T04:00:35.665Z,83.23
2016-10-11T04:01:35.684Z,83.19
2016-10-11T04:02:35.744Z,82.9
2016-10-11T04:03:35.764Z,83.23
2016-10-11T04:04:36.477Z,83.29
2016-10-11T04:05:35.865Z,83.14
2016-10-11T04:06:35.939Z,83.04
2016-10-11T04:07:35.984Z,83.33
2016-10-11T04:08:36.056Z,82.94
2016-10-11T04:09:36.083Z,82.75
2016-10-11T04:10:36.130Z,83.42
2016-10-11T04:11:36.181Z,82.65
2016-10-11T04:12:36.266Z,82.37
2016-10-11T04:13:36.315Z,82.37
2016-10-11T04:14:36.344Z,82.46
2016-10-11T04:15:36.460Z,82.27
2016-10-11T04:16:36.446Z,82.94
2016-10-11T04:17:36.510Z,82.37
2016-10-11T04:18:36.551Z,82.18
2016-10-11T04:19:36.620Z,83.33
2016-10-11T04:20:37.194Z,83.23
2016-10-11T04:21:36.712Z,82.65
2016-10-11T04:22:36.798Z,82.56
2016-10-11T04:23:36.800Z,83.19
2016-10-11T04:24:36.883Z,83.23
2016-10-11T04:25:36.895Z,83.33
2016-10-11T04:26:36.983Z,82.94
2016-10-11T04:27:37.031Z,82.56
2016-10-11T04:28:37.079Z,82.65
2016-10-11T04:29:37.118Z,83.48
2016-10-11T04:30:37.156Z,83.19
2016-10-11T04:31:37.252Z,83.29
2016-10-11T04:32:37.329Z,83.38
2016-10-11T04:33:37.362Z,83.58
2016-10-11T04:34:37.389Z,83.38
2016-10-11T04:35:37.493Z,83.09
2016-10-11T04:36:37.490Z,83.58
2016-10-11T04:37:37.554Z,83.67
2016-10-11T04:38:37.566Z,83.48
2016-10-11T04:39:37.723Z,83.19
2016-10-11T04:40:37.712Z,83.23
2016-10-11T04:41:37.758Z,83.33
2016-10-11T04:42:37.802Z,83.38
2016-10-11T04:43:37.807Z,82.9
2016-10-11T04:44:37.916Z,83.19
2016-10-11T04:45:37.940Z,83.29
2016-10-11T04:46:37.976Z,83.29
2016-10-11T04:47:38.070Z,82.71
2016-10-11T04:48:38.125Z,83.33
2016-10-11T04:49:38.143Z,82.94
2016-10-11T04:50:38.214Z,83.14
2016-10-11T04:51:38.283Z,82.37
2016-10-11T04:52:38.323Z,82.65
2016-10-11T04:53:38.346Z,82.81
2016-10-11T04:54:38.378Z,82.9
2016-10-11T04:55:38.457Z,82.75
2016-10-11T04:56:38.472Z,83.33
2016-10-11T04:57:38.598Z,83.04
2016-10-11T04:58:38.608Z,82.56
2016-10-11T04:59:38.625Z,82.56
2016-10-11T05:00:38.666Z,82.65
2016-10-11T05:01:38.765Z,82.27
2016-10-11T05:02:38.784Z,82.37
2016-10-11T05:03:38.845Z,82.75
2016-10-11T05:04:38.929Z,82.94
2016-10-11T05:05:38.913Z,82.65
2016-10-11T05:06:39.039Z,82.46
2016-10-11T05:07:39.044Z,82.37
2016-10-11T05:08:39.097Z,82.37
2016-10-11T05:09:39.138Z,82.27
2016-10-11T05:10:39.238Z,82.27
2016-10-11T05:11:39.300Z,82.08
2016-10-11T05:12:39.301Z,82.27
2016-10-11T05:13:39.365Z,82.56
2016-10-11T05:14:39.415Z,82.56
2016-10-11T05:15:39.447Z,82.27
2016-10-11T05:16:39.508Z,82.46
2016-10-11T05:17:39.598Z,82.37
2016-10-11T05:18:39.632Z,82.08
2016-10-11T05:19:39.664Z,82.56
2016-10-11T05:20:39.749Z,82.56
2016-10-11T05:21:39.797Z,82.37
2016-10-11T05:22:39.799Z,82.37
2016-10-11T05:23:39.925Z,81.98
2016-10-11T05:24:39.911Z,81.89
2016-10-11T05:25:39.987Z,82.37
2016-10-11T05:26:40.005Z,82.56
2016-10-11T05:27:40.090Z,82.27
2016-10-11T05:28:40.159Z,82.65
2016-10-11T05:29:40.172Z,82.94
2016-10-11T05:30:40.234Z,82.46
2016-10-11T05:31:40.308Z,82.56
2016-10-11T05:32:40.339Z,82.27
2016-10-11T05:33:40.429Z,82.37
2016-10-11T05:34:40.507Z,82.27
2016-10-11T05:35:40.500Z,82.27
2016-10-11T05:36:40.549Z,81.89
2016-10-11T05:37:40.610Z,81.51
2016-10-11T05:38:40.676Z,81.79
2016-10-11T05:39:40.736Z,81.98
2016-10-11T05:40:40.745Z,82.08
2016-10-11T05:41:40.816Z,82.37
2016-10-11T05:42:40.880Z,82.08
2016-10-11T05:43:40.906Z,81.98
2016-10-11T05:44:40.948Z,81.7
2016-10-11T05:45:41.059Z,81.79
2016-10-11T05:46:41.093Z,81.51
2016-10-11T05:47:41.135Z,81.6
2016-10-11T05:48:41.176Z,81.7
2016-10-11T05:49:41.182Z,81.7
2016-10-11T05:50:41.781Z,81.7
2016-10-11T05:51:41.292Z,81.6
2016-10-11T05:52:41.360Z,81.41
2016-10-11T05:53:41.407Z,81.51
2016-10-11T05:54:41.499Z,82.08
2016-10-11T05:55:41.501Z,81.98
2016-10-11T05:56:41.549Z,81.98
2016-10-11T05:57:41.612Z,81.7
2016-10-11T05:58:41.658Z,81.89
2016-10-11T05:59:41.731Z,82.08
2016-10-11T06:00:41.777Z,81.89
2016-10-11T06:01:41.796Z,81.89
2016-10-11T06:02:41.912Z,82.37
2016-10-11T06:03:41.941Z,82.27
2016-10-11T06:04:41.958Z,82.94
2016-10-11T06:05:42.049Z,82.27
2016-10-11T06:06:42.133Z,82.37
2016-10-11T06:07:42.100Z,82.27
2016-10-11T06:08:42.164Z,82.46
2016-10-11T06:09:42.219Z,81.89
2016-10-11T06:10:42.335Z,82.18
2016-10-11T06:11:42.408Z,82.18
2016-10-11T06:12:42.350Z,81.98
2016-10-11T06:13:42.468Z,82.18
2016-10-11T06:14:42.513Z,81.89
2016-10-11T06:15:42.575Z,81.89
2016-10-11T06:16:42.581Z,82.37
2016-10-11T06:17:42.644Z,81.79
2016-10-11T06:18:42.656Z,81.89
2016-10-11T06:19:42.764Z,82.37
2016-10-11T06:20:42.812Z,82.37
2016-10-11T06:21:42.898Z,82.27
2016-10-11T06:22:42.884Z,82.37
2016-10-11T06:23:42.939Z,82.37
2016-10-11T06:24:43.050Z,82.56
2016-10-11T06:25:43.038Z,82.75
2016-10-11T06:26:43.096Z,82.27
2016-10-11T06:27:43.135Z,82.65
2016-10-11T06:28:43.219Z,82.46
2016-10-11T06:29:43.270Z,82.46
2016-10-11T06:30:43.302Z,82.37
2016-10-11T06:31:43.378Z,82.37
2016-10-11T06:32:43.384Z,82.37
2016-10-11T06:33:43.468Z,82.75
2016-10-11T06:34:43.570Z,83.04
2016-10-11T06:35:43.532Z,82.37
2016-10-11T06:36:43.590Z,82.27
2016-10-11T06:37:43.747Z,82.27
2016-10-11T06:38:43.783Z,82.75
2016-10-11T06:39:43.770Z,82.65
2016-10-11T06:40:43.829Z,82.18
2016-10-11T06:41:43.853Z,82.94
2016-10-11T06:42:43.998Z,82.37
2016-10-11T06:43:43.945Z,82.56
2016-10-11T06:44:44.020Z,82.37
2016-10-11T06:45:44.065Z,82.18
2016-10-11T06:46:44.136Z,82.27
2016-10-11T06:47:44.181Z,82.46
2016-10-11T06:48:44.192Z,82.46
2016-10-11T06:49:44.273Z,82.65
2016-10-11T06:50:44.324Z,82.27
2016-10-11T06:51:44.412Z,82.18
2016-10-11T06:52:44.423Z,82.27
2016-10-11T06:53:44.523Z,82.37
2016-10-11T06:54:44.560Z,82.37
2016-10-11T06:55:44.587Z,82.65
2016-10-11T06:56:44.694Z,82.37
2016-10-11T06:57:44.734Z,82.46
2016-10-11T06:58:44.756Z,82.94
2016-10-11T06:59:44.766Z,82.37
2016-10-11T07:00:44.808Z,82.46
2016-10-11T07:01:44.902Z,82.46
2016-10-11T07:02:44.973Z,82.46
2016-10-11T07:03:44.954Z,82.75
2016-10-11T07:04:45.048Z,82.56
2016-10-11T07:05:45.104Z,82.37
2016-10-11T07:06:45.111Z,82.37
2016-10-11T07:07:45.224Z,82.46
2016-10-11T07:08:45.297Z,82.27
2016-10-11T07:09:45.334Z,82.37
2016-10-11T07:10:45.416Z,82.08
2016-10-11T07:11:45.429Z,82.27
2016-10-11T07:12:45.428Z,82.65
2016-10-11T07:13:45.468Z,82.37
2016-10-11T07:14:45.621Z,82.85
2016-10-11T07:15:45.593Z,83.14
2016-10-11T07:16:45.642Z,82.94
2016-10-11T07:17:45.736Z,83.23
2016-10-11T07:18:45.781Z,82.46
2016-10-11T07:19:45.845Z,82.56
2016-10-11T07:20:45.830Z,83.23
2016-10-11T07:21:45.919Z,83.86
2016-10-11T07:22:45.994Z,83.29
2016-10-11T07:23:45.998Z,83.33
2016-10-11T07:24:46.605Z,83.61
2016-10-11T07:25:46.156Z,83.14
2016-10-11T07:26:46.226Z,83.52
2016-10-11T07:27:46.188Z,83.33
2016-10-11T07:28:46.273Z,83.42
2016-10-11T07:29:46.840Z,83.71
2016-10-11T07:30:46.351Z,83.23
2016-10-11T07:31:46.429Z,83.33
2016-10-11T07:32:46.509Z,83.23
2016-10-11T07:33:46.532Z,83.14
2016-10-11T07:34:46.615Z,83.33
2016-10-11T07:35:46.661Z,83.33
2016-10-11T07:36:46.677Z,83.14
2016-10-11T07:37:46.782Z,83.23
2016-10-11T07:38:46.740Z,83.14
2016-10-11T07:39:46.803Z,83.14
2016-10-11T07:40:46.872Z,83.33
2016-10-11T07:41:46.947Z,82.85
2016-10-11T07:42:47.003Z,83.04
2016-10-11T07:43:47.600Z,83.23
2016-10-11T07:44:47.095Z,83.04
2016-10-11T07:45:47.196Z,83.29
2016-10-11T07:46:47.170Z,83.33
2016-10-11T07:47:47.232Z,83.52
2016-10-11T07:48:47.294Z,83.33
2016-10-11T07:49:47.326Z,83.52
2016-10-11T07:50:47.380Z,83.33
2016-10-11T07:51:47.418Z,83.33
2016-10-11T07:52:47.492Z,83.42
2016-10-11T07:53:47.535Z,82.94
2016-10-11T07:54:47.579Z,82.94
2016-10-11T07:55:47.620Z,83.14
2016-10-11T07:56:47.678Z,82.94
2016-10-11T07:57:47.737Z,83.23
2016-10-11T07:58:47.823Z,82.65
2016-10-11T07:59:47.867Z,82.85
2016-10-11T08:00:47.952Z,83.23
2016-10-11T08:01:48.022Z,82.65
2016-10-11T08:02:48.019Z,82.37
2016-10-11T08:03:48.051Z,82.46
2016-10-11T08:04:48.109Z,82.37
2016-10-11T08:05:48.158Z,82.65
2016-10-11T08:06:48.255Z,83.14
2016-10-11T08:07:48.339Z,82.56
2016-10-11T08:08:48.354Z,82.65
2016-10-11T08:09:48.386Z,82.94
2016-10-11T08:10:48.380Z,82.65
2016-10-11T08:11:48.485Z,83.23
2016-10-11T08:12:48.522Z,83.23
2016-10-11T08:13:48.536Z,82.75
2016-10-11T08:14:48.641Z,83.33
2016-10-11T08:15:48.645Z,82.75
2016-10-11T08:16:48.701Z,82.75
2016-10-11T08:17:48.846Z,82.37
2016-10-11T08:18:48.804Z,83.14
2016-10-11T08:19:48.910Z,82.94
2016-10-11T08:20:48.897Z,83.33
2016-10-11T08:21:49.031Z,82.65
2016-10-11T08:22:49.070Z,82.65
2016-10-11T08:23:49.063Z,83.04
2016-10-11T08:24:49.174Z,83.33
2016-10-11T08:25:49.176Z,83.33
2016-10-11T08:26:49.237Z,83.33
2016-10-11T08:27:49.265Z,82.85
2016-10-11T08:28:49.855Z,83.04
2016-10-11T08:29:49.422Z,83.14
2016-10-11T08:30:49.459Z,82.65
2016-10-11T08:31:49.485Z,83.33
2016-10-11T08:32:49.513Z,83.33
2016-10-11T08:33:49.584Z,82.65
2016-10-11T08:34:49.632Z,82.85
2016-10-11T08:35:49.716Z,82.27
2016-10-11T08:36:49.721Z,82.46
2016-10-11T08:37:49.772Z,82.46
2016-10-11T08:38:49.869Z,82.46
2016-10-11T08:39:49.922Z,82.46
2016-10-11T08:40:49.976Z,82.18
2016-10-11T08:41:50.018Z,82.18
2016-10-11T08:42:50.054Z,82.37
2016-10-11T08:43:50.158Z,82.75
2016-10-11T08:44:50.161Z,82.56
2016-10-11T08:45:50.186Z,83.33
2016-10-11T08:46:50.289Z,82.37
2016-10-11T08:47:50.317Z,82.56
2016-10-11T08:48:50.350Z,82.27
2016-10-11T08:49:50.460Z,82.65
2016-10-11T08:50:50.425Z,82.37
2016-10-11T08:51:50.520Z,82.27
2016-10-11T08:52:50.556Z,82.27
2016-10-11T08:53:50.650Z,82.37
2016-10-11T08:54:50.645Z,82.94
2016-10-11T08:55:50.795Z,82.37
2016-10-11T08:56:50.734Z,82.27
2016-10-11T08:57:50.828Z,82.18
2016-10-11T08:58:50.880Z,82.6
2016-10-11T08:59:50.960Z,82.08
2016-10-11T09:00:50.994Z,82.56
2016-10-11T09:01:51.010Z,82.65
2016-10-11T09:02:51.081Z,82.75
2016-10-11T09:03:51.085Z,82.75
2016-10-11T09:04:51.189Z,82.65
2016-10-11T09:05:51.225Z,82.75
2016-10-11T09:06:51.342Z,82.46
2016-10-11T09:07:51.291Z,82.46
2016-10-11T09:08:51.456Z,82.46
2016-10-11T09:09:51.497Z,82.79
2016-10-11T09:10:51.511Z,82.56
2016-10-11T09:11:51.565Z,82.56
2016-10-11T09:12:51.590Z,82.27
2016-10-11T09:13:51.605Z,82.37
2016-10-11T09:14:51.713Z,82.85
2016-10-11T09:15:51.754Z,82.56
2016-10-11T09:16:51.834Z,82.94
2016-10-11T09:17:51.879Z,82.75
2016-10-11T09:18:51.871Z,82.94
2016-10-11T09:19:51.984Z,82.85
2016-10-11T09:20:52.006Z,83.14
2016-10-11T09:21:52.056Z,83.23
2016-10-11T09:22:52.129Z,83.14
2016-10-11T09:23:52.160Z,83.33
2016-10-11T09:24:52.197Z,82.75
2016-10-11T09:25:52.299Z,83.04
2016-10-11T09:26:52.288Z,83.04
2016-10-11T09:27:52.347Z,83.04
2016-10-11T09:28:52.457Z,82.7
2016-10-11T09:29:52.441Z,82.56
2016-10-11T09:30:52.503Z,83.23
2016-10-11T09:31:52.629Z,82.27
2016-10-11T09:32:52.650Z,82.65
2016-10-11T09:33:52.657Z,82.27
2016-10-11T09:34:52.744Z,83.14
2016-10-11T09:35:52.790Z,83.04
2016-10-11T09:36:52.804Z,82.56
2016-10-11T09:37:52.907Z,82.37
2016-10-11T09:38:52.943Z,82.65
2016-10-11T09:39:52.937Z,82.65
2016-10-11T09:40:53.038Z,82.46
2016-10-11T09:41:53.596Z,82.46
2016-10-11T09:42:53.206Z,82.75
2016-10-11T09:43:53.153Z,82.94
2016-10-11T09:44:53.204Z,82.37
2016-10-11T09:45:53.316Z,82.85
2016-10-11T09:46:53.356Z,82.65
2016-10-11T09:47:53.423Z,82.27
2016-10-11T09:48:53.455Z,82.6
2016-10-11T09:49:53.479Z,82.6
2016-10-11T09:50:53.545Z,82.7
2016-10-11T09:51:53.609Z,82.41
2016-10-11T09:52:53.670Z,82.51
2016-10-11T09:53:53.713Z,82.7
2016-10-11T09:54:53.770Z,82.31
2016-10-11T09:55:53.832Z,82.41
2016-10-11T09:56:53.840Z,82.31
2016-10-11T09:57:53.921Z,82.89
2016-10-11T09:58:54.009Z,82.6
2016-10-11T09:59:53.958Z,83.33
2016-10-11T10:00:54.124Z,83.27
2016-10-11T10:01:54.122Z,83.18
2016-10-11T10:02:54.149Z,82.21
2016-10-11T10:03:54.205Z,82.6
2016-10-11T10:04:54.270Z,82.6
2016-10-11T10:05:54.320Z,82.75
2016-10-11T10:06:54.333Z,82.65
2016-10-11T10:07:54.412Z,82.6
2016-10-11T10:08:54.444Z,82.56
2016-10-11T10:09:54.490Z,82.94
2016-10-11T10:10:55.063Z,83.27
2016-10-11T10:11:54.620Z,82.37
2016-10-11T10:12:54.647Z,82.65
2016-10-11T10:13:54.728Z,83.33
2016-10-11T10:14:54.731Z,83.18
2016-10-11T10:15:54.879Z,83.27
2016-10-11T10:16:54.835Z,82.65
2016-10-11T10:17:54.894Z,83.37
2016-10-11T10:18:54.987Z,82.85
2016-10-11T10:19:55.021Z,82.7
2016-10-11T10:20:55.099Z,83.47
2016-10-11T10:21:55.151Z,82.89
2016-10-11T10:22:55.181Z,82.51
2016-10-11T10:23:55.251Z,82.41
2016-10-11T10:24:55.347Z,82.89
2016-10-11T10:25:55.323Z,83.08
2016-10-11T10:26:55.347Z,83.33
2016-10-11T10:27:55.441Z,83.08
2016-10-11T10:28:55.490Z,82.65
2016-10-11T10:29:55.581Z,83.23
2016-10-11T10:30:55.613Z,83.18
2016-10-11T10:31:55.641Z,82.51
2016-10-11T10:32:55.756Z,82.7
2016-10-11T10:33:55.762Z,82.31
2016-10-11T10:34:55.772Z,82.41
2016-10-11T10:35:55.887Z,82.98
2016-10-11T10:36:55.912Z,82.6
2016-10-11T10:37:55.927Z,82.79
2016-10-11T10:38:56.001Z,82.41
2016-10-11T10:39:56.073Z,82.41
2016-10-11T10:40:56.101Z,82.51
2016-10-11T10:41:56.126Z,82.41
2016-10-11T10:42:56.225Z,82.21
2016-10-11T10:43:56.241Z,81.54
2016-10-11T10:44:56.328Z,81.54
2016-10-11T10:45:56.444Z,81.93
2016-10-11T10:46:56.386Z,82.21
2016-10-11T10:47:56.536Z,82.03
2016-10-11T10:48:56.496Z,82.31
2016-10-11T10:49:56.538Z,81.74
2016-10-11T10:50:56.635Z,82.41
2016-10-11T10:51:56.650Z,81.84
2016-10-11T10:52:56.695Z,82.03
2016-10-11T10:53:57.280Z,82.03
2016-10-11T10:54:56.838Z,82.03
2016-10-11T10:55:56.883Z,81.54
2016-10-11T10:56:56.896Z,82.31
2016-10-11T10:57:57.001Z,81.54
2016-10-11T10:58:57.043Z,81.59
2016-10-11T10:59:57.083Z,81.84
2016-10-11T11:00:57.119Z,81.93
2016-10-11T11:01:57.157Z,81.64
2016-10-11T11:02:57.204Z,81.4
2016-10-11T11:03:57.299Z,81.45
2016-10-11T11:04:57.353Z,81.64
2016-10-11T11:05:57.475Z,81.59
2016-10-11T11:06:57.403Z,81.64
2016-10-11T11:07:57.503Z,80.97
2016-10-11T11:08:57.624Z,81.26
2016-10-11T11:09:57.561Z,81.3
2016-10-11T11:10:57.849Z,81.26
2016-10-11T11:11:57.684Z,81.26
2016-10-11T11:12:58.344Z,80.87
2016-10-11T11:13:57.806Z,81.45
2016-10-11T11:14:57.858Z,80.91
2016-10-11T11:15:57.908Z,80.73
2016-10-11T11:16:57.943Z,81.1
2016-10-11T11:17:57.982Z,80.82
2016-10-11T11:18:58.275Z,80.91
2016-10-11T11:19:58.081Z,81.01
2016-10-11T11:20:58.179Z,81.01
2016-10-11T11:21:58.417Z,80.82
2016-10-11T11:22:58.251Z,80.73
2016-10-11T11:23:58.333Z,80.43
2016-10-11T11:24:58.398Z,80.82
2016-10-11T11:25:58.393Z,80.43
2016-10-11T11:26:58.470Z,80.73
2016-10-11T11:27:58.541Z,80.34
2016-10-11T11:28:58.681Z,80.43
2016-10-11T11:29:58.625Z,81.01
2016-10-11T11:30:59.185Z,80.91
2016-10-11T11:31:58.813Z,80.82
2016-10-11T11:32:58.753Z,80.82
2016-10-11T11:33:58.851Z,80.24
2016-10-11T11:34:58.881Z,80.63
2016-10-11T11:35:59.001Z,80.43
2016-10-11T11:36:58.986Z,80.34
2016-10-11T11:37:59.075Z,80.53
2016-10-11T11:38:59.063Z,80.43
2016-10-11T11:39:59.178Z,80.53
2016-10-11T11:40:59.178Z,80.53
2016-10-11T11:41:59.223Z,81.2
2016-10-11T11:42:59.261Z,80.43
2016-10-11T11:43:59.409Z,79.96
2016-10-11T11:44:59.428Z,79.96
2016-10-11T11:46:00.041Z,79.96
2016-10-11T11:46:59.533Z,80.24
2016-10-11T11:47:59.568Z,79.86
2016-10-11T11:48:59.599Z,79.86
2016-10-11T11:49:59.698Z,79.22
2016-10-11T11:50:59.782Z,79.42
2016-10-11T11:51:59.769Z,78.84
2016-10-11T11:52:59.829Z,79.96
2016-10-11T11:53:59.822Z,79.8
2016-10-11T11:54:59.944Z,79.03
2016-10-11T11:55:59.993Z,79.9
2016-10-11T11:57:00.539Z,79.8
2016-10-11T11:58:00.111Z,79.13
2016-10-11T11:59:00.129Z,78.65
2016-10-11T12:00:00.177Z,78.65
2016-10-11T12:01:00.740Z,78.75
2016-10-11T12:02:00.302Z,78.84
2016-10-11T12:03:00.377Z,79.28
2016-10-11T12:04:00.412Z,79.32
2016-10-11T12:05:00.431Z,79.32
2016-10-11T12:06:00.456Z,78.84
2016-10-11T12:07:00.539Z,78.75
2016-10-11T12:08:00.558Z,78.65
2016-10-11T12:09:00.612Z,79.13
2016-10-11T12:10:01.300Z,79.32
2016-10-11T12:11:00.739Z,78.36
2016-10-11T12:12:00.793Z,78.65
2016-10-11T12:13:00.837Z,78.65
2016-10-11T12:14:00.908Z,78.65
2016-10-11T12:15:01.011Z,78.36
2016-10-11T12:16:00.984Z,78.36
2016-10-11T12:17:01.042Z,78.36
2016-10-11T12:18:01.146Z,78.55
2016-10-11T12:19:01.151Z,78.65
2016-10-11T12:20:01.205Z,78.17
2016-10-11T12:21:01.280Z,78.27
2016-10-11T12:22:01.317Z,77.98
2016-10-11T12:23:01.352Z,78.36
2016-10-11T12:24:01.445Z,78.36
2016-10-11T12:25:01.472Z,78.17
2016-10-11T12:26:01.536Z,78.65
2016-10-11T12:27:01.619Z,78.65
2016-10-11T12:28:01.687Z,78.75
2016-10-11T12:29:01.675Z,78.65
2016-10-11T12:30:01.796Z,78.08
2016-10-11T12:31:01.793Z,78.08
2016-10-11T12:32:01.851Z,78.08
2016-10-11T12:33:01.917Z,78.27
2016-10-11T12:34:01.933Z,78.08
2016-10-11T12:35:01.993Z,77.53
2016-10-11T12:36:02.065Z,77.69
2016-10-11T12:37:02.093Z,77.73
2016-10-11T12:38:02.148Z,78.3
2016-10-11T12:39:02.203Z,77.73
2016-10-11T12:40:02.246Z,77.44
2016-10-11T12:41:02.305Z,77.53
2016-10-11T12:42:02.398Z,77.21
2016-10-11T12:43:02.462Z,77.53
2016-10-11T12:44:02.454Z,77.53
2016-10-11T12:45:03.057Z,78.3
2016-10-11T12:46:02.600Z,77.63
2016-10-11T12:47:02.665Z,77.53
2016-10-11T12:48:02.750Z,77.44
2016-10-11T12:49:02.702Z,77.73
2016-10-11T12:50:02.796Z,77.44
2016-10-11T12:51:02.912Z,77.44
2016-10-11T12:52:02.920Z,77.15
2016-10-11T12:53:02.904Z,76.57
2016-10-11T12:54:02.958Z,76.57
2016-10-11T12:55:03.039Z,76.48